Time;durP1;ratioP1;P1;durP2;ratioP2;P2;SDS_P1;SDS_P2;PMS_P1;PMS_P2;Temp;Humidity;BMP_temperature;BMP_pressure;BME280_temperature;BME280_humidity;BME280_pressure;Samples;Min_cycle;Max_cycle;Signal;HPM_P1;HPM_P2
2023/07/22 00:02:06;;;;;;;5.78;2.08;;;;;;;22.55;39.70;101376.72;16103302;19;130153;-48
2023/07/22 00:07:28;;;;;;;4.95;1.90;;;;;;;22.54;39.68;101379.75;16101574;19;129602;-48
2023/07/22 00:12:50;;;;;;;3.67;2.03;;;;;;;22.52;39.78;101382.81;16105419;19;131170;-47
2023/07/22 00:18:12;;;;;;;6.50;1.95;;;;;;;22.51;39.96;101371.94;16104912;19;132235;-46
2023/07/22 00:23:34;;;;;;;6.78;2.13;;;;;;;22.51;39.99;101377.50;16105680;19;129588;-46
2023/07/22 00:28:55;;;;;;;5.25;2.20;;;;;;;22.49;39.87;101372.16;16122318;19;130515;-45
2023/07/22 00:34:18;;;;;;;3.05;1.80;;;;;;;22.49;39.79;101369.38;16122486;19;130186;-45
2023/07/22 00:39:40;;;;;;;3.70;2.10;;;;;;;22.48;39.87;101364.91;16122296;19;129795;-46
2023/07/22 00:45:02;;;;;;;4.75;1.90;;;;;;;22.46;39.76;101360.69;16119546;19;130833;-45
2023/07/22 00:50:25;;;;;;;3.47;1.90;;;;;;;22.46;40.06;101360.69;16120571;19;130900;-46
2023/07/22 00:55:47;;;;;;;2.35;1.65;;;;;;;22.44;39.97;101363.75;16121211;19;130574;-47
2023/07/22 01:01:09;;;;;;;3.47;1.95;;;;;;;22.43;40.12;101360.13;16121041;19;129554;-49
2023/07/22 01:06:32;;;;;;;3.80;1.90;;;;;;;22.44;39.94;101352.63;16110504;19;130536;-50
2023/07/22 01:11:54;;;;;;;3.75;1.60;;;;;;;22.42;40.17;101355.66;16119511;19;130052;-49
2023/07/22 01:17:16;;;;;;;4.65;1.67;;;;;;;22.41;39.96;101348.38;16120056;19;131116;-47
2023/07/22 01:22:38;;;;;;;6.85;2.00;;;;;;;22.40;39.95;101343.91;16120354;19;131201;-47
2023/07/22 01:28:00;;;;;;;2.33;1.85;;;;;;;22.39;39.85;101345.03;16114639;19;133588;-48
2023/07/22 01:33:22;;;;;;;4.57;1.90;;;;;;;22.38;40.12;101343.34;16120636;19;129902;-47
2023/07/22 01:38:44;;;;;;;3.35;1.60;;;;;;;22.38;40.35;101326.63;16116738;19;129808;-50
2023/07/22 01:44:06;;;;;;;1.50;1.40;;;;;;;22.38;39.74;101326.63;16114273;19;131107;-47
2023/07/22 01:49:28;;;;;;;2.22;1.60;;;;;;;22.37;40.10;101335.22;16114196;19;130608;-48
2023/07/22 01:54:50;;;;;;;4.00;1.73;;;;;;;22.35;40.11;101318.78;16117123;19;130217;-47
2023/07/22 02:00:12;;;;;;;1.92;1.52;;;;;;;22.36;39.91;101316.81;16116330;19;131151;-48
2023/07/22 02:05:35;;;;;;;3.80;1.70;;;;;;;22.35;40.14;101329.94;16117165;19;130040;-49
2023/07/22 02:11:06;;;;;;;2.58;1.80;;;;;;;22.34;40.18;101314.31;16115890;19;129514;-45
2023/07/22 02:16:28;;;;;;;4.07;1.80;;;;;;;22.33;40.26;101309.84;16108963;19;130716;-48
2023/07/22 02:21:50;;;;;;;3.15;1.73;;;;;;;22.31;40.44;101303.69;16114145;19;129609;-49
2023/07/22 02:27:12;;;;;;;2.58;1.48;;;;;;;22.31;40.31;101309.25;16112041;19;131424;-46
2023/07/22 02:32:34;;;;;;;4.07;1.70;;;;;;;22.31;40.12;101309.25;16113282;19;131701;-46
2023/07/22 02:37:56;;;;;;;1.75;1.60;;;;;;;22.30;40.20;101302.00;16116091;19;130211;-48
2023/07/22 02:43:18;;;;;;;2.85;1.40;;;;;;;22.29;40.45;101300.31;16113014;19;129592;-44
2023/07/22 02:48:40;;;;;;;2.47;1.33;;;;;;;22.30;40.10;101299.22;16112099;19;129275;-48
2023/07/22 02:54:03;;;;;;;1.45;1.30;;;;;;;22.28;40.38;101299.47;16114273;19;130171;-49
2023/07/22 02:59:25;;;;;;;2.75;1.70;;;;;;;22.27;40.30;101296.97;16111531;19;130915;-45
2023/07/22 03:04:47;;;;;;;1.90;1.58;;;;;;;22.27;40.49;101299.75;16114821;19;129494;-49
2023/07/22 03:10:09;;;;;;;3.10;1.70;;;;;;;22.26;40.67;101304.47;16114118;19;130383;-48
2023/07/22 03:15:32;;;;;;;2.30;1.80;;;;;;;22.25;40.35;101313.09;16111582;19;131027;-45
2023/07/22 03:20:54;;;;;;;1.77;1.50;;;;;;;22.25;40.22;101313.94;16110839;19;129731;-47
2023/07/22 03:26:16;;;;;;;2.20;1.70;;;;;;;22.23;40.44;101324.50;16112295;19;130227;-44
2023/07/22 03:31:39;;;;;;;1.58;1.40;;;;;;;22.22;40.67;101314.44;16114576;19;130171;-51
2023/07/22 03:37:01;;;;;;;2.25;1.40;;;;;;;22.23;40.60;101318.09;16111168;19;129277;-50
2023/07/22 03:42:23;;;;;;;2.95;1.50;;;;;;;22.22;40.14;101320.03;16108192;19;130372;-48
2023/07/22 03:47:46;;;;;;;2.28;1.75;;;;;;;22.20;40.48;101310.22;16107578;19;129826;-49
2023/07/22 03:53:08;;;;;;;2.20;1.40;;;;;;;22.20;40.26;101308.28;16103758;19;129710;-49
2023/07/22 03:58:30;;;;;;;1.95;1.50;;;;;;;22.22;40.36;101308.03;16112094;19;130622;-50
2023/07/22 04:03:52;;;;;;;3.10;1.55;;;;;;;22.20;40.37;101311.06;16108020;19;129419;-47
2023/07/22 04:09:14;;;;;;;1.60;1.50;;;;;;;22.19;40.53;101317.75;16112890;19;129788;-46
2023/07/22 04:14:36;;;;;;;2.47;1.55;;;;;;;22.19;40.61;101314.09;16108918;19;130142;-46
2023/07/22 04:19:57;;;;;;;2.75;1.50;;;;;;;22.19;40.26;101317.75;16110076;19;129754;-44
2023/07/22 04:25:20;;;;;;;2.65;1.60;;;;;;;22.18;40.56;101320.78;16106354;19;130252;-51
2023/07/22 04:30:42;;;;;;;2.45;1.50;;;;;;;22.18;40.54;101326.34;16107120;19;129314;-48
2023/07/22 04:36:04;;;;;;;1.80;1.48;;;;;;;22.17;40.33;101327.44;16110207;19;130122;-48
2023/07/22 04:41:26;;;;;;;1.55;1.40;;;;;;;22.16;40.39;101326.63;16107721;19;130065;-47
2023/07/22 04:46:47;;;;;;;2.45;1.55;;;;;;;22.16;40.26;101329.41;16109396;19;130067;-48
2023/07/22 04:52:09;;;;;;;1.45;1.30;;;;;;;22.15;40.34;101333.28;16109904;19;129745;-45
2023/07/22 04:57:31;;;;;;;1.75;1.60;;;;;;;22.14;40.62;101326.03;16102318;19;130264;-47
2023/07/22 05:02:55;;;;;;;1.92;1.58;;;;;;;22.15;40.66;101332.47;16101933;19;129454;-46
2023/07/22 05:08:18;;;;;;;1.48;1.33;;;;;;;22.13;40.47;101330.78;16107802;19;130520;-52
2023/07/22 05:13:39;;;;;;;2.92;1.88;;;;;;;22.12;40.85;101329.09;16114656;19;129947;-49
2023/07/22 05:19:02;;;;;;;1.45;1.30;;;;;;;22.13;40.76;101336.34;16118358;19;131723;-45
2023/07/22 05:24:24;;;;;;;2.13;1.50;;;;;;;22.12;40.84;101333.81;16117545;19;130789;-51
2023/07/22 05:29:46;;;;;;;2.58;1.90;;;;;;;22.11;40.71;101344.13;16116040;19;129706;-50
2023/07/22 05:35:08;;;;;;;1.77;1.40;;;;;;;22.11;40.51;101346.06;16117955;19;129690;-48
2023/07/22 05:40:30;;;;;;;3.38;1.60;;;;;;;22.10;40.42;101341.59;16116198;19;131139;-46
2023/07/22 05:45:52;;;;;;;1.98;1.50;;;;;;;22.09;40.64;101343.53;16117261;19;130555;-46
2023/07/22 05:51:15;;;;;;;2.03;1.77;;;;;;;22.08;41.02;101336.28;16111095;19;130921;-50
2023/07/22 05:56:37;;;;;;;2.92;1.67;;;;;;;22.09;40.90;101337.13;16121205;19;129622;-43
2023/07/22 06:01:59;;;;;;;2.63;1.85;;;;;;;22.07;40.86;101331.81;16116452;19;130484;-50
2023/07/22 06:07:25;;;;;;;2.13;1.52;;;;;;;22.05;40.69;101322.88;16115611;19;129739;-48
2023/07/22 06:12:47;;;;;;;1.90;1.70;;;;;;;22.06;40.58;101324.53;16109903;19;131257;-48
2023/07/22 06:18:09;;;;;;;1.85;1.67;;;;;;;22.07;40.43;101328.19;16112150;19;129819;-47
2023/07/22 06:23:31;;;;;;;2.85;1.85;;;;;;;22.06;40.83;101324.53;16113426;19;130852;-49
2023/07/22 06:28:53;;;;;;;2.35;1.48;;;;;;;22.06;40.68;101323.72;16114286;19;129964;-49
2023/07/22 06:34:15;;;;;;;2.30;1.70;;;;;;;22.05;40.83;101313.69;16115359;19;129703;-48
2023/07/22 06:39:37;;;;;;;1.52;1.35;;;;;;;22.05;40.99;101322.88;16115086;19;130171;-45
2023/07/22 06:44:59;;;;;;;2.33;1.70;;;;;;;22.06;40.97;101323.72;16116250;19;130510;-50
2023/07/22 06:50:21;;;;;;;4.32;1.70;;;;;;;22.05;40.94;101322.03;16117611;19;129392;-50
2023/07/22 06:55:51;;;;;;;2.13;1.70;;;;;;;22.09;40.92;101321.25;16117049;19;129806;-45
2023/07/22 07:01:13;;;;;;;10.48;4.18;;;;;;;22.10;40.76;101325.72;16116786;19;129344;-47
2023/07/22 07:06:35;;;;;;;7.75;3.70;;;;;;;22.11;40.64;101316.25;16117273;19;130859;-49
2023/07/22 07:11:57;;;;;;;5.68;3.28;;;;;;;22.17;40.75;101313.50;16112985;19;129528;-45
2023/07/22 07:17:19;;;;;;;7.78;3.28;;;;;;;22.23;40.03;101320.88;16113377;19;130084;-49
2023/07/22 07:22:42;;;;;;;12.88;3.78;;;;;;;22.25;40.43;101324.25;16113402;19;130072;-49
2023/07/22 07:28:04;;;;;;;12.57;3.30;;;;;;;22.25;40.07;101318.69;16116403;19;131417;-44
2023/07/22 07:33:26;;;;;;;10.88;3.70;;;;;;;22.28;40.30;101326.50;16112911;19;130965;-45
2023/07/22 07:38:48;;;;;;;15.18;4.10;;;;;;;22.27;40.60;101320.09;16110913;19;131000;-50
2023/07/22 07:44:10;;;;;;;14.20;3.90;;;;;;;22.31;40.10;101330.72;16111661;19;131114;-48
2023/07/22 07:49:33;;;;;;;11.73;4.00;;;;;;;22.35;40.05;101315.13;16107846;19;130532;-49
2023/07/22 07:54:55;;;;;;;10.68;4.05;;;;;;;22.38;40.24;101304.31;16110510;19;130055;-52
2023/07/22 08:00:17;;;;;;;11.27;4.20;;;;;;;22.39;40.17;101308.81;16107722;19;130862;-53
2023/07/22 08:05:39;;;;;;;10.65;4.57;;;;;;;22.43;40.40;101304.38;16105990;19;131836;-54
2023/07/22 08:11:10;;;;;;;8.32;3.75;;;;;;;22.48;40.11;101308.31;16104342;19;130817;-53
2023/07/22 08:16:32;;;;;;;11.38;4.13;;;;;;;22.48;40.31;101306.34;16105314;19;130456;-51
2023/07/22 08:21:55;;;;;;;13.48;4.15;;;;;;;22.55;39.99;101314.50;16101955;19;130678;-53
2023/07/22 08:27:17;;;;;;;13.05;4.15;;;;;;;22.63;40.14;101322.41;16106564;19;130806;-55
2023/07/22 08:32:38;;;;;;;9.35;4.20;;;;;;;22.70;40.06;101311.03;16109306;19;130509;-54
2023/07/22 08:38:02;;;;;;;9.35;3.50;;;;;;;22.74;39.70;101324.19;16100702;19;130544;-52
2023/07/22 08:43:25;;;;;;;8.18;3.42;;;;;;;22.77;40.09;101324.78;16104613;19;130353;-50
2023/07/22 08:48:53;;;;;;;7.57;3.10;;;;;;;22.82;39.84;101324.81;16115507;19;130929;-54
2023/07/22 08:54:15;;;;;;;11.13;4.07;;;;;;;22.86;39.99;101321.22;16121866;19;130949;-46
2023/07/22 08:59:37;;;;;;;8.98;3.30;;;;;;;22.91;39.69;101316.81;16118176;19;129739;-50
2023/07/22 09:04:59;;;;;;;6.90;3.13;;;;;;;22.97;39.90;101322.19;16120092;19;131178;-50
2023/07/22 09:10:22;;;;;;;9.55;3.22;;;;;;;23.03;39.65;101320.28;16116513;19;130148;-52
2023/07/22 09:15:45;;;;;;;7.70;2.83;;;;;;;23.08;39.75;101311.09;16113120;19;130307;-48
2023/07/22 09:21:08;;;;;;;6.68;2.90;;;;;;;23.09;39.54;101312.78;16121462;19;129639;-50
2023/07/22 09:26:32;;;;;;;10.75;3.03;;;;;;;23.12;39.46;101320.63;16122748;19;129622;-52
2023/07/22 09:31:54;;;;;;;7.85;2.58;;;;;;;23.13;39.41;101308.34;16116886;19;130180;-50
2023/07/22 09:37:16;;;;;;;7.65;2.97;;;;;;;23.12;39.67;101310.28;16108754;19;134878;-50
2023/07/22 09:42:38;;;;;;;7.05;3.00;;;;;;;23.12;39.32;101306.66;16111035;19;130209;-51
2023/07/22 09:48:00;;;;;;;6.63;2.42;;;;;;;23.14;39.56;101296.91;16116323;19;130569;-51
2023/07/22 09:53:23;;;;;;;5.60;2.45;;;;;;;23.11;39.52;101296.63;16114484;19;130669;-49
2023/07/22 09:58:46;;;;;;;7.07;2.42;;;;;;;23.09;39.44;101305.22;16117010;19;129660;-49
2023/07/22 10:04:09;;;;;;;6.32;2.67;;;;;;;23.09;39.85;101296.88;16118071;19;129645;-50
2023/07/22 10:09:34;;;;;;;4.80;2.67;;;;;;;23.08;39.72;101292.38;16119358;19;134348;-47
2023/07/22 10:14:57;;;;;;;2.90;2.22;;;;;;;23.06;39.16;101297.41;16120566;19;134160;-50
2023/07/22 10:20:19;;;;;;;5.95;2.30;;;;;;;23.04;39.58;101286.50;16118003;19;129247;-47
2023/07/22 10:25:42;;;;;;;5.65;2.20;;;;;;;23.05;39.50;101293.78;16117653;19;129631;-48
2023/07/22 10:31:04;;;;;;;6.32;2.03;;;;;;;23.05;39.42;101281.78;16116935;19;130819;-51
2023/07/22 10:36:30;;;;;;;5.97;2.03;;;;;;;23.04;39.19;101278.13;16115935;19;129905;-47
2023/07/22 10:42:05;;;;;;;4.32;2.10;;;;;;;23.03;39.48;101287.63;16115634;19;130281;-50
2023/07/22 10:47:36;;;;;;;3.47;2.05;;;;;;;23.03;39.46;101282.03;16103827;19;130930;-50
2023/07/22 10:53:02;;;;;;;4.45;2.08;;;;;;;23.03;39.62;101276.44;16110644;19;129730;-51
2023/07/22 10:58:24;;;;;;;6.55;2.13;;;;;;;23.03;39.29;101282.03;16113035;19;130797;-52
2023/07/22 11:04:06;;;;;;;4.78;2.15;;;;;;;23.03;39.22;101276.44;16105734;19;129691;-50
2023/07/22 11:09:32;;;;;;;3.28;1.55;;;;;;;23.01;39.61;101270.31;16107096;19;130232;-52
2023/07/22 11:15:16;;;;;;;6.90;1.80;;;;;;;22.99;38.96;101269.75;16105905;19;130178;-52
2023/07/22 11:20:38;;;;;;;4.57;1.77;;;;;;;22.98;39.30;101254.13;16101678;19;130507;-49
2023/07/22 11:26:01;;;;;;;4.22;1.85;;;;;;;22.99;39.13;101253.00;16104910;19;130589;-53
2023/07/22 11:31:33;;;;;;;4.00;1.70;;;;;;;22.98;39.46;101256.91;16110966;19;129655;-52
2023/07/22 11:36:56;;;;;;;3.15;1.77;;;;;;;22.97;39.23;101255.22;16096895;19;130564;-51
2023/07/22 11:42:18;;;;;;;4.05;1.85;;;;;;;22.99;39.01;101246.56;16108722;19;130099;-54
2023/07/22 11:47:40;;;;;;;2.88;1.60;;;;;;;22.99;39.02;101244.63;16113623;19;130677;-51
2023/07/22 11:53:02;;;;;;;3.38;1.52;;;;;;;22.98;38.94;101234.56;16107582;19;129931;-53
2023/07/22 11:58:28;;;;;;;2.97;1.63;;;;;;;22.96;39.06;101236.78;16099608;19;131434;-49
2023/07/22 12:03:55;;;;;;;2.08;1.40;;;;;;;22.97;38.97;101221.72;16105602;19;130874;-51
2023/07/22 12:09:17;;;;;;;3.35;1.33;;;;;;;22.96;39.13;101219.19;16103147;19;129883;-46
2023/07/22 12:14:41;;;;;;;2.38;1.60;;;;;;;22.96;38.72;101222.84;16108934;19;129579;-48
2023/07/22 12:20:06;;;;;;;3.10;1.60;;;;;;;22.96;38.28;101214.47;16115172;19;129920;-53
2023/07/22 12:25:28;;;;;;;2.15;1.17;;;;;;;22.95;38.63;101217.53;16122989;19;131352;-51
2023/07/22 12:30:49;;;;;;;1.60;1.10;;;;;;;22.93;38.88;101222.53;16120224;19;130248;-51
2023/07/22 12:36:11;;;;;;;2.13;1.13;;;;;;;22.91;38.75;101217.22;16118338;19;134325;-48
2023/07/22 12:41:33;;;;;;;32.13;2.67;;;;;;;22.94;38.58;101205.53;16117981;19;130404;-50
2023/07/22 12:46:55;;;;;;;42.30;3.10;;;;;;;22.98;38.90;101214.19;16124168;19;131813;-46
2023/07/22 12:52:17;;;;;;;39.80;2.72;;;;;;;23.00;38.36;101203.59;16116309;19;131310;-48
2023/07/22 12:57:39;;;;;;;24.67;2.78;;;;;;;23.04;38.07;101197.22;16120634;19;129614;-51
2023/07/22 13:03:01;;;;;;;20.13;2.95;;;;;;;23.07;38.01;101190.28;16119640;19;129339;-47
2023/07/22 13:08:23;;;;;;;13.18;2.08;;;;;;;23.09;37.39;101174.06;16116920;19;131206;-51
2023/07/22 13:13:45;;;;;;;12.73;1.85;;;;;;;23.10;37.77;101186.91;16114158;19;130744;-49
2023/07/22 13:19:08;;;;;;;16.17;2.53;;;;;;;23.12;37.54;101175.50;16106519;19;130190;-53
2023/07/22 13:24:30;;;;;;;14.40;2.05;;;;;;;23.11;37.81;101176.63;16095076;19;131430;-47
2023/07/22 13:29:53;;;;;;;7.70;1.70;;;;;;;23.10;37.33;101170.19;16119383;19;130564;-47
2023/07/22 13:35:15;;;;;;;6.25;1.52;;;;;;;23.11;37.43;101163.50;16115237;19;132040;-47
2023/07/22 13:40:37;;;;;;;6.32;1.58;;;;;;;23.12;37.43;101155.97;16109835;19;130066;-51
2023/07/22 13:45:59;;;;;;;12.00;1.52;;;;;;;23.13;37.21;101166.03;16118063;19;129737;-48
2023/07/22 13:51:20;;;;;;;9.00;1.42;;;;;;;23.11;37.02;101163.50;16114108;19;130843;-48
2023/07/22 13:56:47;;;;;;;9.65;1.83;;;;;;;23.09;37.07;101170.47;16117843;19;130111;-51
2023/07/22 14:02:09;;;;;;;8.95;1.40;;;;;;;23.09;37.04;101168.50;16118130;19;131274;-51
2023/07/22 14:07:31;;;;;;;9.65;1.65;;;;;;;23.10;37.19;101169.34;16116438;19;129653;-49
2023/07/22 14:12:53;;;;;;;7.03;1.75;;;;;;;23.11;37.29;101157.06;16115484;19;130535;-49
2023/07/22 14:18:17;;;;;;;10.75;1.65;;;;;;;23.12;37.21;101167.13;16114583;19;130841;-48
2023/07/22 14:23:38;;;;;;;6.93;1.40;;;;;;;23.12;37.35;101167.13;16116070;19;131752;-47
2023/07/22 14:29:00;;;;;;;12.43;1.73;;;;;;;23.11;37.65;101166.28;16113053;19;130457;-49
2023/07/22 14:34:22;;;;;;;8.00;1.63;;;;;;;23.09;37.47;101170.47;16113491;19;131089;-51
2023/07/22 14:39:44;;;;;;;11.00;1.85;;;;;;;23.04;37.51;101160.94;16116298;19;130552;-52
2023/07/22 14:45:07;;;;;;;21.42;2.10;;;;;;;23.02;37.47;101162.34;16110439;19;130373;-50
2023/07/22 14:50:29;;;;;;;15.52;1.83;;;;;;;23.01;37.25;101167.09;16113560;19;129346;-46
2023/07/22 14:55:51;;;;;;;8.50;2.17;;;;;;;22.98;37.89;101162.03;16110986;19;130974;-53
2023/07/22 15:01:14;;;;;;;11.77;2.20;;;;;;;22.97;37.36;101157.56;16111129;19;129768;-51
2023/07/22 15:06:36;;;;;;;10.80;2.03;;;;;;;22.96;37.71;101164.25;16112694;19;130722;-50
2023/07/22 15:11:58;;;;;;;6.28;1.60;;;;;;;22.95;37.70;101170.94;16111637;19;129543;-49
2023/07/22 15:17:20;;;;;;;7.03;1.67;;;;;;;22.95;37.96;101170.94;16113161;19;130998;-51
2023/07/22 15:22:44;;;;;;;10.60;1.53;;;;;;;22.93;37.99;101170.38;16112967;19;129531;-48
2023/07/22 15:28:06;;;;;;;10.13;1.48;;;;;;;22.94;37.60;101174.00;16114343;19;129462;-51
2023/07/22 15:33:29;;;;;;;7.40;1.42;;;;;;;22.93;38.15;101161.16;16114763;19;129660;-48
2023/07/22 15:38:52;;;;;;;5.30;1.35;;;;;;;22.92;38.04;101168.69;16111847;19;131422;-49
2023/07/22 15:44:14;;;;;;;6.45;1.65;;;;;;;22.93;38.06;101166.75;16110358;19;130290;-50
2023/07/22 15:49:36;;;;;;;8.38;1.60;;;;;;;22.94;38.17;101160.06;16115719;19;130725;-49
2023/07/22 15:54:58;;;;;;;5.25;1.40;;;;;;;22.94;38.14;101158.09;16104256;19;131126;-48
2023/07/22 16:00:20;;;;;;;8.32;1.95;;;;;;;22.97;38.15;101154.78;16109205;19;129669;-47
2023/07/22 16:05:43;;;;;;;9.32;1.42;;;;;;;23.00;38.13;101147.81;16112389;19;130317;-52
2023/07/22 16:11:06;;;;;;;9.85;1.80;;;;;;;23.00;38.31;101151.44;16107833;19;130990;-46
2023/07/22 16:16:28;;;;;;;29.35;2.45;;;;;;;22.98;38.27;101142.50;16102885;19;129647;-54
2023/07/22 16:21:50;;;;;;;21.83;2.30;;;;;;;22.97;38.69;101138.03;16106625;19;131311;-56
2023/07/22 16:27:12;;;;;;;36.25;2.95;;;;;;;22.97;38.20;101149.19;16105802;19;129964;-49
2023/07/22 16:32:34;;;;;;;43.85;2.83;;;;;;;22.95;38.42;101134.66;16105233;19;131336;-53
2023/07/22 16:37:56;;;;;;;28.92;2.80;;;;;;;22.93;38.13;101131.31;16083525;19;131017;-57
2023/07/22 16:43:18;;;;;;;24.20;2.45;;;;;;;22.91;38.27;101125.16;16087938;19;130417;-54
2023/07/22 16:48:39;;;;;;;24.77;2.67;;;;;;;22.88;38.67;101122.91;16072700;19;131040;-53
2023/07/22 16:54:01;;;;;;;24.55;2.42;;;;;;;22.84;37.92;101124.53;16104055;19;130625;-54
2023/07/22 16:59:23;;;;;;;26.55;2.67;;;;;;;22.81;38.37;101122.28;16098755;19;130456;-55
2023/07/22 17:04:45;;;;;;;26.98;2.78;;;;;;;22.78;38.22;101112.50;16104638;19;131130;-57
2023/07/22 17:10:08;;;;;;;17.88;3.35;;;;;;;22.77;38.27;101110.84;16117555;19;130689;-54
2023/07/22 17:15:30;;;;;;;19.20;2.42;;;;;;;22.76;38.17;101105.53;16124023;19;129829;-54
2023/07/22 17:20:52;;;;;;;15.68;2.20;;;;;;;22.74;38.11;101094.63;16119640;19;131593;-52
2023/07/22 17:26:14;;;;;;;15.68;2.78;;;;;;;22.73;38.35;101088.22;16125225;19;129755;-54
2023/07/22 17:31:36;;;;;;;14.43;2.47;;;;;;;22.73;38.41;101081.78;16125144;19;129575;-53
2023/07/22 17:36:58;;;;;;;17.13;2.90;;;;;;;22.72;38.40;101082.91;16120242;19;129862;-52
2023/07/22 17:42:21;;;;;;;10.27;1.85;;;;;;;22.71;38.64;101076.50;16121975;19;130066;-55
2023/07/22 17:47:43;;;;;;;9.45;2.00;;;;;;;22.70;38.42;101071.19;16116591;19;129719;-55
2023/07/22 17:53:05;;;;;;;10.35;2.20;;;;;;;22.69;38.62;101061.97;16124790;19;130397;-53
2023/07/22 17:58:27;;;;;;;16.02;2.58;;;;;;;22.68;38.63;101063.09;16125280;19;131589;-51
2023/07/22 18:03:49;;;;;;;14.05;2.30;;;;;;;22.68;38.25;101057.50;16126633;19;130785;-51
2023/07/22 18:09:11;;;;;;;11.40;2.20;;;;;;;22.67;38.49;101061.41;16124949;19;130087;-50
2023/07/22 18:14:34;;;;;;;12.43;1.88;;;;;;;22.66;38.64;101054.16;16127361;19;131440;-54
2023/07/22 18:19:56;;;;;;;12.57;1.80;;;;;;;22.66;38.58;101056.13;16116009;19;131332;-54
2023/07/22 18:25:18;;;;;;;13.85;1.80;;;;;;;22.64;38.83;101047.19;16116989;19;130599;-52
2023/07/22 18:30:41;;;;;;;7.35;1.50;;;;;;;22.62;38.66;101041.88;16111060;19;131101;-54
2023/07/22 18:36:04;;;;;;;13.02;2.17;;;;;;;22.61;39.23;101040.19;16111827;19;130885;-55
2023/07/22 18:41:27;;;;;;;5.25;1.60;;;;;;;22.59;39.01;101037.66;16114071;19;129729;-53
2023/07/22 18:46:50;;;;;;;6.65;1.70;;;;;;;22.59;39.06;101032.09;16110053;19;129817;-54
2023/07/22 18:52:12;;;;;;;6.63;1.58;;;;;;;22.58;39.32;101022.06;16109620;19;129963;-55
2023/07/22 18:57:34;;;;;;;7.18;1.95;;;;;;;22.58;39.07;101024.00;16115719;19;131148;-53
2023/07/22 19:02:57;;;;;;;5.93;1.55;;;;;;;22.56;39.10;101023.44;16109224;19;131084;-56
2023/07/22 19:08:24;;;;;;;8.77;1.63;;;;;;;22.56;39.08;101020.66;16107449;19;131495;-54
2023/07/22 19:13:46;;;;;;;6.38;1.77;;;;;;;22.53;39.42;101013.66;16110233;19;129749;-53
2023/07/22 19:19:08;;;;;;;3.53;1.60;;;;;;;22.51;39.17;101003.91;16102217;19;129730;-54
2023/07/22 19:24:30;;;;;;;10.32;2.08;;;;;;;22.51;39.58;101013.09;16110561;19;129460;-55
2023/07/22 19:29:52;;;;;;;31.50;2.65;;;;;;;22.50;39.73;101002.22;16106833;19;130371;-54
2023/07/22 19:35:14;;;;;;;25.95;2.50;;;;;;;22.53;39.58;101010.88;16112184;19;129809;-54
2023/07/22 19:40:36;;;;;;;11.50;2.08;;;;;;;22.54;39.64;101003.34;16106780;19;130692;-53
2023/07/22 19:46:02;;;;;;;18.40;1.90;;;;;;;22.58;39.94;101010.06;16098355;19;130453;-55
2023/07/22 19:51:24;;;;;;;25.02;2.72;;;;;;;22.57;40.12;101009.25;16105685;19;130152;-55
2023/07/22 19:56:46;;;;;;;21.10;2.28;;;;;;;22.59;40.52;101003.38;16106785;19;131249;-55
2023/07/22 20:02:08;;;;;;;21.52;2.15;;;;;;;22.60;40.16;100999.47;16103461;19;130725;-50
2023/07/22 20:07:30;;;;;;;30.75;3.22;;;;;;;22.61;40.36;101023.47;16110787;19;131172;-58
2023/07/22 20:12:52;;;;;;;29.50;2.75;;;;;;;22.59;40.20;101025.69;16103771;19;130104;-60
2023/07/22 20:18:14;;;;;;;25.38;2.88;;;;;;;22.57;40.40;101039.06;16110658;19;130082;-59
2023/07/22 20:23:36;;;;;;;30.58;2.72;;;;;;;22.55;40.56;101033.75;16109831;19;130608;-59
2023/07/22 20:28:58;;;;;;;16.00;2.55;;;;;;;22.53;40.03;101032.31;16110033;19;130926;-59
2023/07/22 20:34:20;;;;;;;14.35;2.05;;;;;;;22.52;40.08;101050.19;16109906;19;130451;-57
2023/07/22 20:39:42;;;;;;;18.40;1.95;;;;;;;22.51;40.10;101040.97;16109530;19;129450;-59
2023/07/22 20:45:04;;;;;;;15.48;2.47;;;;;;;22.50;40.66;101046.84;16124912;19;131887;-58
2023/07/22 20:50:26;;;;;;;19.90;2.67;;;;;;;22.49;40.14;101047.94;16120295;19;130643;-60
2023/07/22 20:55:48;;;;;;;14.20;2.97;;;;;;;22.47;40.30;101042.63;16119821;19;130991;-60
2023/07/22 21:01:10;;;;;;;13.57;2.58;;;;;;;22.44;40.16;101035.63;16120218;19;129692;-59
2023/07/22 21:06:33;;;;;;;9.48;1.90;;;;;;;22.43;40.23;101025.59;16122451;19;130414;-60
2023/07/22 21:11:55;;;;;;;14.85;2.25;;;;;;;22.42;40.24;101021.13;16119292;19;129438;-60
2023/07/22 21:17:17;;;;;;;11.02;2.13;;;;;;;22.41;40.53;101013.88;16123862;19;129894;-60
2023/07/22 21:22:39;;;;;;;12.98;2.10;;;;;;;22.40;40.22;101006.63;16116532;19;131628;-60
2023/07/22 21:28:01;;;;;;;7.15;1.88;;;;;;;22.41;40.41;101007.47;16118505;19;131828;-59
2023/07/22 21:33:22;;;;;;;14.15;2.20;;;;;;;22.39;40.48;100993.81;16119154;19;130244;-60
2023/07/22 21:38:44;;;;;;;13.30;1.95;;;;;;;22.40;40.33;100983.50;16120700;19;131127;-61
2023/07/22 21:44:06;;;;;;;7.30;1.85;;;;;;;22.38;40.30;100980.13;16116557;19;130876;-60
2023/07/22 21:49:28;;;;;;;10.27;2.15;;;;;;;22.38;40.65;100980.97;16116047;19;131412;-60
2023/07/22 21:54:51;;;;;;;11.88;1.92;;;;;;;22.37;40.54;100967.31;16117214;19;129510;-61
2023/07/22 22:00:15;;;;;;;10.63;1.70;;;;;;;22.36;40.24;100960.91;16121129;19;129958;-59
2023/07/22 22:05:38;;;;;;;5.25;1.40;;;;;;;22.36;40.27;100955.31;16116524;19;131099;-60
2023/07/22 22:11:06;;;;;;;8.30;1.73;;;;;;;22.36;40.29;100944.19;16116941;19;130552;-61
2023/07/22 22:16:29;;;;;;;5.93;1.80;;;;;;;22.35;40.54;100945.28;16119645;19;129727;-59
2023/07/22 22:21:51;;;;;;;5.95;1.60;;;;;;;22.34;40.35;100938.03;16119153;19;129392;-60
2023/07/22 22:27:13;;;;;;;8.77;1.75;;;;;;;22.34;40.45;100926.06;16113973;19;130164;-59
2023/07/22 22:32:35;;;;;;;8.52;1.58;;;;;;;22.33;40.44;100919.63;16116948;19;129718;-61
2023/07/22 22:37:57;;;;;;;5.93;1.77;;;;;;;22.33;40.57;100911.28;16117704;19;130413;-61
2023/07/22 22:43:19;;;;;;;8.35;1.60;;;;;;;22.32;40.51;100904.00;16117552;19;130111;-60
2023/07/22 22:48:41;;;;;;;4.47;1.42;;;;;;;22.32;40.58;100890.06;16116615;19;130386;-60
2023/07/22 22:54:03;;;;;;;3.47;1.52;;;;;;;22.32;40.51;100892.88;16115716;19;130431;-60
2023/07/22 22:59:25;;;;;;;3.85;1.17;;;;;;;22.32;40.89;100876.16;16114698;19;129631;-60
2023/07/22 23:04:47;;;;;;;4.40;1.50;;;;;;;22.31;40.62;100871.69;16106627;19;129866;-60
2023/07/22 23:10:09;;;;;;;5.53;1.58;;;;;;;22.30;40.71;100867.22;16112225;19;130573;-59
2023/07/22 23:15:31;;;;;;;3.72;1.50;;;;;;;22.29;40.98;100865.53;16111314;19;129627;-60
2023/07/22 23:20:53;;;;;;;4.63;1.30;;;;;;;22.29;40.91;100859.97;16109950;19;130370;-60
2023/07/22 23:26:15;;;;;;;5.20;1.40;;;;;;;22.28;40.62;100853.56;16115379;19;129685;-60
2023/07/22 23:31:37;;;;;;;4.80;1.52;;;;;;;22.27;40.47;100843.53;16114114;19;129551;-60
2023/07/22 23:36:59;;;;;;;4.55;1.80;;;;;;;22.28;40.49;100844.34;16106095;19;129793;-61
2023/07/22 23:42:21;;;;;;;3.78;1.30;;;;;;;22.27;40.57;100845.50;16112115;19;130249;-61
2023/07/22 23:47:43;;;;;;;3.58;1.40;;;;;;;22.27;40.99;100834.34;16105377;19;131190;-61
2023/07/22 23:53:05;;;;;;;4.00;1.38;;;;;;;22.26;41.03;100833.50;16110356;19;129871;-63
2023/07/22 23:58:27;;;;;;;5.07;1.33;;;;;;;22.26;41.06;100821.53;16110581;19;131053;-70
